Time;durP1;ratioP1;P1;durP2;ratioP2;P2;SDS_P1;SDS_P2;PMS_P1;PMS_P2;Temp;Humidity;BMP_temperature;BMP_pressure;BME280_temperature;BME280_humidity;BME280_pressure;Samples;Min_cycle;Max_cycle;Signal;HPM_P1;HPM_P2
2022/05/16 00:01:07;;;;;;;1.40;1.30;;;22.10;69.50;;;;;;5021962;28;20452;-78
2022/05/16 00:03:35;;;;;;;1.73;1.10;;;22.20;66.30;;;;;;5022159;28;20957;-78
2022/05/16 00:06:04;;;;;;;1.87;1.20;;;22.20;68.20;;;;;;5026048;28;20484;-78
2022/05/16 00:08:32;;;;;;;1.40;1.20;;;22.10;66.80;;;;;;5021501;28;20513;-78
2022/05/16 00:11:00;;;;;;;1.17;1.10;;;22.00;65.80;;;;;;5024092;28;20461;-78
2022/05/16 00:13:28;;;;;;;2.10;1.10;;;22.00;65.80;;;;;;5022387;28;20448;-78
2022/05/16 00:15:56;;;;;;;0.93;0.93;;;22.00;66.10;;;;;;5019313;28;20514;-78
2022/05/16 00:18:26;;;;;;;1.20;1.10;;;21.90;62.50;;;;;;5020584;28;20461;-79
2022/05/16 00:20:54;;;;;;;2.10;1.20;;;22.00;63.00;;;;;;5017468;28;20460;-78
2022/05/16 00:23:22;;;;;;;4.23;1.37;;;22.00;63.70;;;;;;5019221;28;21290;-78
2022/05/16 00:25:51;;;;;;;1.00;1.00;;;22.00;62.60;;;;;;5021177;28;20479;-78
2022/05/16 00:28:19;;;;;;;2.13;1.13;;;22.10;61.40;;;;;;5023653;28;20816;-78
2022/05/16 00:30:48;;;;;;;1.20;1.20;;;22.10;60.50;;;;;;5020705;28;20844;-78
2022/05/16 00:33:16;;;;;;;1.00;1.00;;;22.20;62.80;;;;;;5024560;28;20462;-78
2022/05/16 00:35:45;;;;;;;1.07;1.07;;;22.20;64.50;;;;;;5026372;28;20471;-78
2022/05/16 00:38:14;;;;;;;1.00;1.00;;;22.20;62.80;;;;;;5023053;28;20836;-78
2022/05/16 00:40:42;;;;;;;1.53;1.20;;;22.30;66.40;;;;;;5021266;28;20492;-79
2022/05/16 00:43:14;;;;;;;0.90;0.90;;;22.20;65.60;;;;;;5023817;28;20460;-78
2022/05/16 00:45:45;;;;;;;2.27;1.03;;;22.20;67.60;;;;;;5020321;28;20492;-79
2022/05/16 00:48:13;;;;;;;2.07;1.40;;;22.20;65.30;;;;;;5017672;28;20470;-78
2022/05/16 00:50:41;;;;;;;2.70;1.00;;;22.10;65.40;;;;;;5019324;28;22397;-78
2022/05/16 00:53:11;;;;;;;1.40;1.30;;;22.20;65.10;;;;;;5022862;28;20465;-79
2022/05/16 00:55:39;;;;;;;1.97;1.87;;;22.20;65.50;;;;;;5021055;28;20900;-78
2022/05/16 00:58:11;;;;;;;2.53;1.00;;;22.20;66.00;;;;;;5025044;28;20455;-80
2022/05/16 01:00:40;;;;;;;1.30;1.10;;;22.20;62.40;;;;;;5021439;28;20467;-79
2022/05/16 01:05:57;;;;;;;2.83;1.30;;;22.20;64.50;;;;;;5022393;28;21001;-79
2022/05/16 01:08:30;;;;;;;1.20;1.10;;;22.10;64.60;;;;;;5018770;28;20792;-79
2022/05/16 01:11:02;;;;;;;1.13;1.03;;;22.10;65.60;;;;;;5020022;28;21042;-78
2022/05/16 01:13:32;;;;;;;1.40;1.30;;;22.10;66.40;;;;;;5020094;28;20455;-78
2022/05/16 01:16:02;;;;;;;1.30;1.20;;;22.00;66.60;;;;;;5019911;28;20550;-78
2022/05/16 01:18:30;;;;;;;1.13;1.03;;;22.00;63.80;;;;;;5024217;28;20453;-78
2022/05/16 01:21:17;;;;;;;1.83;1.33;;;22.00;64.40;;;;;;5022882;28;20507;-78
2022/05/16 01:23:50;;;;;;;1.47;1.37;;;21.90;66.00;;;;;;5016662;28;20999;-78
2022/05/16 01:26:22;;;;;;;1.20;1.10;;;21.90;65.90;;;;;;5018627;28;20488;-78
2022/05/16 01:28:50;;;;;;;1.60;1.30;;;21.90;68.60;;;;;;5025181;28;20887;-78
2022/05/16 01:31:19;;;;;;;1.73;1.40;;;21.80;67.30;;;;;;5021847;28;20843;-78
2022/05/16 01:33:47;;;;;;;1.17;1.07;;;21.70;64.80;;;;;;5016662;28;20468;-78
2022/05/16 01:36:15;;;;;;;1.50;1.17;;;21.70;65.60;;;;;;5021707;28;20472;-79
2022/05/16 01:38:43;;;;;;;1.53;1.13;;;21.70;65.30;;;;;;5018772;28;21018;-78
2022/05/16 01:41:14;;;;;;;1.83;1.10;;;21.70;65.90;;;;;;5020769;28;20473;-78
2022/05/16 01:43:45;;;;;;;2.10;1.40;;;21.70;64.80;;;;;;5015386;28;20454;-78
2022/05/16 01:46:21;;;;;;;1.43;1.20;;;21.80;64.00;;;;;;5018072;28;20482;-79
2022/05/16 01:48:49;;;;;;;1.90;1.70;;;21.70;62.70;;;;;;5018223;28;20471;-78
2022/05/16 01:51:18;;;;;;;2.60;1.30;;;21.60;59.60;;;;;;5017493;28;21117;-78
2022/05/16 01:53:46;;;;;;;1.50;1.30;;;21.50;60.90;;;;;;5020211;28;20887;-78
2022/05/16 01:56:16;;;;;;;1.53;1.20;;;21.60;61.30;;;;;;5025115;28;20512;-78
2022/05/16 01:58:45;;;;;;;4.67;1.10;;;21.70;62.40;;;;;;5014033;28;20464;-78
2022/05/16 02:01:14;;;;;;;1.40;1.30;;;21.70;62.90;;;;;;5019992;28;20471;-80
2022/05/16 02:03:44;;;;;;;2.00;1.50;;;21.50;60.10;;;;;;5018389;28;21034;-78
2022/05/16 02:06:13;;;;;;;1.30;1.20;;;21.60;61.10;;;;;;5017099;28;20483;-78
2022/05/16 02:08:42;;;;;;;1.40;1.20;;;21.60;62.20;;;;;;5018980;28;20468;-78
2022/05/16 02:11:11;;;;;;;2.50;1.47;;;21.70;62.20;;;;;;5018946;28;20530;-78
2022/05/16 02:13:43;;;;;;;3.33;1.13;;;21.50;59.50;;;;;;5019645;28;20463;-78
2022/05/16 02:16:11;;;;;;;1.30;1.20;;;21.50;58.20;;;;;;5020357;28;20920;-78
2022/05/16 02:18:39;;;;;;;2.03;1.10;;;21.30;57.70;;;;;;5018638;28;20520;-78
2022/05/16 02:26:46;;;;;;;2.27;2.03;;;21.30;55.20;;;;;;5017451;28;20484;-78
2022/05/16 02:29:18;;;;;;;1.43;1.27;;;21.00;51.70;;;;;;5021057;28;20474;-78
2022/05/16 02:31:47;;;;;;;3.27;1.30;;;21.00;52.90;;;;;;5019194;28;20472;-78
2022/05/16 02:34:16;;;;;;;3.90;1.43;;;20.90;52.70;;;;;;5020567;28;20465;-78
2022/05/16 02:36:44;;;;;;;1.87;1.10;;;20.70;50.70;;;;;;5034175;28;20478;-78
2022/05/16 02:39:14;;;;;;;2.00;1.10;;;20.80;51.80;;;;;;5020707;28;20447;-78
2022/05/16 02:41:42;;;;;;;1.83;1.40;;;21.10;53.80;;;;;;5019289;28;22593;-78
2022/05/16 02:44:11;;;;;;;1.40;1.30;;;21.00;54.40;;;;;;5021510;28;20461;-77
2022/05/16 02:46:42;;;;;;;1.50;1.40;;;21.20;55.70;;;;;;5019472;28;20493;-78
2022/05/16 02:49:11;;;;;;;1.10;1.00;;;20.90;55.60;;;;;;5019897;28;20459;-78
2022/05/16 02:51:39;;;;;;;3.83;1.30;;;21.30;57.00;;;;;;5019161;28;20457;-78
2022/05/16 02:54:08;;;;;;;1.00;1.00;;;21.30;57.10;;;;;;5018264;28;20495;-79
2022/05/16 02:56:36;;;;;;;1.23;1.10;;;21.50;60.40;;;;;;5020118;28;20476;-79
2022/05/16 02:59:04;;;;;;;4.67;1.40;;;21.50;59.30;;;;;;5023018;28;20464;-79
2022/05/16 03:01:34;;;;;;;1.57;1.10;;;21.50;58.10;;;;;;5020539;28;20987;-78
2022/05/16 03:04:04;;;;;;;1.20;1.07;;;21.60;59.30;;;;;;5018942;28;20519;-79
2022/05/16 03:06:32;;;;;;;1.70;1.00;;;21.70;61.80;;;;;;5013281;28;20469;-78
2022/05/16 03:09:01;;;;;;;1.47;1.30;;;21.70;64.00;;;;;;5017745;28;20554;-78
2022/05/16 03:11:29;;;;;;;1.77;1.20;;;21.80;63.10;;;;;;5017314;28;20458;-79
2022/05/16 03:13:58;;;;;;;1.50;1.20;;;21.90;67.60;;;;;;5018815;28;20449;-79
2022/05/16 03:16:26;;;;;;;1.40;1.30;;;21.80;70.90;;;;;;5017313;28;20487;-78
2022/05/16 03:18:55;;;;;;;1.60;1.10;;;21.80;69.90;;;;;;5013675;28;20459;-78
2022/05/16 03:21:24;;;;;;;1.07;0.97;;;21.70;69.90;;;;;;5020009;28;20959;-77
2022/05/16 03:23:53;;;;;;;1.00;1.00;;;21.70;72.30;;;;;;5015881;28;20465;-79
2022/05/16 03:26:21;;;;;;;1.30;1.20;;;21.70;69.70;;;;;;5016672;28;20473;-79
2022/05/16 03:28:49;;;;;;;1.47;1.30;;;21.60;68.40;;;;;;5022001;28;20491;-78
2022/05/16 03:31:17;;;;;;;1.20;1.10;;;21.60;69.40;;;;;;5023005;28;20460;-78
2022/05/16 03:33:46;;;;;;;1.67;1.40;;;21.70;68.70;;;;;;5022429;28;20541;-79
2022/05/16 03:36:14;;;;;;;2.60;1.37;;;21.60;68.20;;;;;;5021845;28;20480;-78
2022/05/16 03:41:29;;;;;;;3.30;1.30;;;21.60;69.80;;;;;;5020965;28;20448;-78
2022/05/16 03:43:57;;;;;;;1.50;1.27;;;21.60;70.90;;;;;;5022914;28;20964;-79
2022/05/16 03:46:26;;;;;;;1.30;1.10;;;21.60;70.00;;;;;;5020859;28;20494;-78
2022/05/16 03:48:54;;;;;;;1.40;1.30;;;21.60;71.40;;;;;;5023654;28;20520;-78
2022/05/16 03:51:23;;;;;;;1.40;1.30;;;21.60;73.70;;;;;;5023582;28;20456;-77
2022/05/16 03:53:52;;;;;;;1.37;1.27;;;21.60;74.40;;;;;;5021574;28;20445;-78
2022/05/16 03:56:23;;;;;;;1.57;1.47;;;21.60;78.80;;;;;;5024872;28;20473;-78
2022/05/16 03:58:51;;;;;;;2.23;1.40;;;21.60;80.10;;;;;;5023735;28;20455;-78
2022/05/16 04:01:20;;;;;;;2.57;1.40;;;21.50;82.30;;;;;;5019807;28;20517;-77
2022/05/16 04:03:48;;;;;;;2.90;2.13;;;21.50;83.10;;;;;;5024571;28;20491;-79
2022/05/16 04:06:17;;;;;;;2.17;1.40;;;21.50;85.60;;;;;;5021924;28;20465;-78
2022/05/16 04:08:46;;;;;;;1.63;1.53;;;21.50;88.80;;;;;;5020846;28;21029;-78
2022/05/16 04:11:17;;;;;;;1.40;1.30;;;21.50;87.20;;;;;;5021729;28;20469;-78
2022/05/16 04:13:46;;;;;;;1.67;1.53;;;21.50;87.00;;;;;;5019727;28;20493;-78
2022/05/16 04:16:15;;;;;;;1.47;1.37;;;21.50;88.20;;;;;;5014975;28;20480;-78
2022/05/16 04:18:44;;;;;;;1.63;1.53;;;21.50;93.10;;;;;;5020884;28;20547;-79
2022/05/16 04:21:13;;;;;;;1.83;1.50;;;21.50;94.50;;;;;;5025544;28;20833;-78
2022/05/16 04:23:41;;;;;;;2.93;1.40;;;21.50;95.20;;;;;;5023378;28;20464;-78
2022/05/16 04:26:10;;;;;;;1.80;1.53;;;21.50;95.70;;;;;;5020808;28;23179;-80
2022/05/16 04:28:40;;;;;;;1.43;1.33;;;21.40;97.40;;;;;;5020650;28;20477;-79
2022/05/16 04:31:08;;;;;;;3.43;3.23;;;21.40;97.70;;;;;;5021829;28;20467;-81
2022/05/16 04:33:36;;;;;;;1.70;1.40;;;21.40;97.20;;;;;;5028999;28;20545;-82
2022/05/16 04:36:05;;;;;;;1.80;1.70;;;21.40;99.70;;;;;;5022209;28;20549;-80
2022/05/16 04:38:34;;;;;;;1.70;1.60;;;21.30;98.80;;;;;;5030137;28;20461;-80
2022/05/16 04:43:49;;;;;;;2.50;1.30;;;21.40;99.90;;;;;;5015715;28;20451;-83
2022/05/16 04:46:17;;;;;;;2.23;1.60;;;21.40;99.90;;;;;;5018009;28;21101;-75
2022/05/16 04:48:46;;;;;;;3.90;1.93;;;21.40;99.90;;;;;;5025033;28;20925;-73
2022/05/16 04:51:14;;;;;;;1.80;1.70;;;21.40;99.90;;;;;;5020358;28;20456;-73
2022/05/16 04:53:42;;;;;;;4.60;2.80;;;21.30;99.00;;;;;;5020354;28;21015;-73
2022/05/16 04:56:11;;;;;;;3.20;2.50;;;21.30;99.90;;;;;;5014419;28;21264;-73
2022/05/16 04:58:39;;;;;;;1.60;1.50;;;21.30;99.90;;;;;;5022231;28;21223;-74
2022/05/16 05:01:09;;;;;;;1.80;1.70;;;21.40;99.90;;;;;;5020378;28;20456;-76
2022/05/16 05:03:37;;;;;;;1.73;1.60;;;21.30;99.90;;;;;;5020011;28;20777;-74
2022/05/16 05:06:06;;;;;;;4.80;1.80;;;21.40;99.90;;;;;;5025840;28;21027;-75
2022/05/16 05:08:34;;;;;;;2.10;1.60;;;21.50;99.90;;;;;;5020463;28;20489;-73
2022/05/16 05:16:36;;;;;;;2.57;1.87;;;21.60;99.90;;;;;;5028732;28;20486;-82
2022/05/16 05:19:05;;;;;;;2.20;1.53;;;21.60;99.90;;;;;;5021806;28;20448;-81
2022/05/16 05:21:33;;;;;;;2.50;1.40;;;21.50;99.90;;;;;;5026108;28;20636;-83
2022/05/16 05:24:01;;;;;;;3.00;1.73;;;21.30;99.90;;;;;;5023652;28;20448;-81
2022/05/16 05:26:29;;;;;;;2.20;1.60;;;21.20;99.90;;;;;;5019228;28;20478;-81
2022/05/16 05:28:58;;;;;;;1.70;1.60;;;21.40;99.90;;;;;;5025794;28;20479;-81
2022/05/16 05:31:26;;;;;;;2.00;1.80;;;21.30;99.90;;;;;;5030354;28;20459;-82
2022/05/16 05:33:57;;;;;;;2.03;1.60;;;21.40;99.90;;;;;;5013484;28;20460;-81
2022/05/16 05:36:26;;;;;;;3.80;2.00;;;21.50;99.90;;;;;;5020334;28;20544;-82
2022/05/16 05:38:54;;;;;;;1.80;1.70;;;21.50;99.90;;;;;;5027872;28;20453;-81
2022/05/16 05:41:24;;;;;;;1.70;1.60;;;21.40;99.90;;;;;;5027208;28;20454;-82
2022/05/16 05:43:52;;;;;;;2.37;1.60;;;21.60;99.90;;;;;;5024572;28;20479;-81
2022/05/16 05:46:21;;;;;;;2.03;1.70;;;21.50;99.90;;;;;;5022940;28;20480;-80
2022/05/16 05:48:50;;;;;;;2.33;1.70;;;21.40;99.90;;;;;;5022238;28;20468;-81
2022/05/16 05:51:20;;;;;;;1.73;1.63;;;21.30;99.90;;;;;;5018502;28;20891;-80
2022/05/16 05:53:48;;;;;;;5.87;1.80;;;21.50;99.90;;;;;;5015241;28;20450;-81
2022/05/16 05:56:17;;;;;;;1.80;1.70;;;21.60;99.90;;;;;;5016198;28;20855;-80
2022/05/16 05:58:46;;;;;;;2.43;1.80;;;21.80;99.90;;;;;;5023145;28;20447;-81
2022/05/16 06:01:14;;;;;;;2.40;2.17;;;21.80;99.90;;;;;;5018905;28;20454;-81
2022/05/16 06:03:42;;;;;;;1.90;1.60;;;21.70;99.90;;;;;;5015567;28;20525;-81
2022/05/16 06:06:11;;;;;;;1.63;1.53;;;21.40;99.90;;;;;;5021201;28;20630;-81
2022/05/16 06:08:40;;;;;;;1.83;1.73;;;21.60;99.90;;;;;;5019671;28;20475;-81
2022/05/16 06:11:09;;;;;;;5.50;1.50;;;21.40;99.90;;;;;;5017137;28;20585;-81
2022/05/16 06:13:38;;;;;;;4.43;1.70;;;21.30;99.90;;;;;;5015106;28;20461;-82
2022/05/16 06:16:08;;;;;;;1.93;1.80;;;21.30;99.90;;;;;;5017504;28;21288;-81
2022/05/16 06:18:37;;;;;;;1.60;1.50;;;21.60;99.90;;;;;;5020868;28;20482;-82
2022/05/16 06:21:06;;;;;;;2.67;1.80;;;21.70;99.90;;;;;;5013564;28;20450;-81
2022/05/16 06:23:34;;;;;;;5.57;1.80;;;21.90;99.90;;;;;;5024358;28;20459;-81
2022/05/16 06:26:05;;;;;;;2.60;1.60;;;22.10;99.90;;;;;;5015461;28;20486;-82
2022/05/16 06:28:37;;;;;;;2.40;2.00;;;22.10;99.90;;;;;;5023522;28;21027;-83
2022/05/16 06:31:06;;;;;;;2.33;2.13;;;22.20;99.90;;;;;;5017041;28;20448;-81
2022/05/16 06:33:35;;;;;;;1.77;1.67;;;22.20;99.90;;;;;;5020586;28;20463;-82
2022/05/16 06:36:05;;;;;;;3.43;1.77;;;22.20;99.90;;;;;;5017136;28;20841;-81
2022/05/16 06:38:35;;;;;;;1.70;1.50;;;22.00;99.90;;;;;;5020427;28;20540;-82
2022/05/16 06:41:05;;;;;;;2.40;2.30;;;22.00;99.90;;;;;;5013097;28;20497;-81
2022/05/16 06:43:34;;;;;;;1.70;1.60;;;22.00;99.90;;;;;;5018466;28;20540;-81
2022/05/16 06:46:03;;;;;;;2.17;1.90;;;22.00;99.90;;;;;;5020180;28;20536;-81
2022/05/16 06:48:32;;;;;;;2.17;1.80;;;22.30;99.90;;;;;;5016104;28;22906;-81
2022/05/16 06:51:00;;;;;;;1.60;1.50;;;22.50;99.90;;;;;;5020805;28;20492;-81
2022/05/16 06:53:30;;;;;;;1.80;1.70;;;22.50;99.90;;;;;;5021713;28;20446;-81
2022/05/16 06:56:00;;;;;;;2.93;1.57;;;22.60;99.90;;;;;;5019945;28;20488;-81
2022/05/16 06:58:29;;;;;;;1.80;1.57;;;22.60;99.90;;;;;;5021307;28;21055;-81
2022/05/16 07:00:58;;;;;;;2.17;2.07;;;22.70;99.90;;;;;;5013850;28;21069;-80
2022/05/16 07:03:27;;;;;;;1.80;1.70;;;22.80;99.90;;;;;;5024106;28;20501;-81
2022/05/16 07:05:56;;;;;;;2.33;1.50;;;22.90;99.90;;;;;;5025771;28;20488;-82
2022/05/16 07:08:24;;;;;;;2.80;1.63;;;23.10;99.90;;;;;;5029140;28;20463;-81
2022/05/16 07:10:54;;;;;;;1.63;1.53;;;23.40;99.90;;;;;;5022754;28;20477;-82
2022/05/16 07:13:24;;;;;;;2.10;2.00;;;23.70;99.90;;;;;;5022653;28;20467;-82
2022/05/16 07:15:54;;;;;;;2.40;1.80;;;23.70;99.90;;;;;;5018337;28;21255;-80
2022/05/16 07:18:24;;;;;;;1.57;1.47;;;23.80;99.90;;;;;;5017723;28;20866;-82
2022/05/16 07:20:53;;;;;;;1.83;1.53;;;23.70;99.90;;;;;;5017321;28;20448;-82
2022/05/16 07:23:21;;;;;;;2.60;2.10;;;23.70;99.90;;;;;;5026042;28;20447;-82
2022/05/16 07:28:36;;;;;;;2.30;2.10;;;23.70;99.90;;;;;;5027759;28;20601;-82
2022/05/16 07:31:06;;;;;;;2.17;1.97;;;23.70;99.90;;;;;;5020588;28;20537;-81
2022/05/16 07:33:35;;;;;;;3.00;2.30;;;23.70;99.90;;;;;;5020733;28;20977;-82
2022/05/16 07:36:04;;;;;;;2.83;2.13;;;23.80;99.90;;;;;;5018497;28;20486;-82
2022/05/16 07:38:33;;;;;;;2.93;2.63;;;23.90;99.90;;;;;;5017360;28;20515;-82
2022/05/16 07:41:01;;;;;;;3.77;2.53;;;24.00;99.90;;;;;;5016294;28;20469;-82
2022/05/16 07:43:29;;;;;;;3.67;2.97;;;23.80;99.90;;;;;;5041159;28;20495;-81
2022/05/16 07:45:57;;;;;;;2.70;2.50;;;23.80;99.90;;;;;;5030374;28;20504;-82
2022/05/16 07:48:27;;;;;;;2.73;2.00;;;23.80;99.90;;;;;;5027067;28;20456;-81
2022/05/16 07:50:55;;;;;;;2.43;2.23;;;23.70;99.90;;;;;;5025106;28;21050;-82
2022/05/16 07:53:23;;;;;;;2.80;1.70;;;23.80;99.90;;;;;;5017668;28;20449;-81
2022/05/16 07:55:54;;;;;;;2.97;2.10;;;23.90;99.90;;;;;;5014610;28;20559;-81
2022/05/16 07:58:23;;;;;;;4.30;1.90;;;24.00;99.90;;;;;;5017551;28;20468;-81
2022/05/16 08:00:55;;;;;;;4.77;2.30;;;24.00;99.90;;;;;;5017083;28;20449;-82
2022/05/16 08:03:28;;;;;;;2.50;2.30;;;24.00;99.90;;;;;;5018788;28;20963;-83
2022/05/16 08:05:57;;;;;;;2.30;2.10;;;24.00;99.90;;;;;;5014841;28;20475;-81
2022/05/16 08:11:13;;;;;;;3.10;2.13;;;23.70;99.90;;;;;;5014113;28;20488;-80
2022/05/16 08:13:42;;;;;;;2.97;2.67;;;23.50;99.90;;;;;;5022694;28;20487;-80
2022/05/16 08:16:11;;;;;;;4.90;2.90;;;23.50;99.90;;;;;;5015788;28;20490;-80
2022/05/16 08:18:42;;;;;;;3.07;2.77;;;23.40;99.90;;;;;;5019564;28;20539;-81
2022/05/16 08:21:11;;;;;;;3.00;2.13;;;23.40;99.90;;;;;;5022799;28;20502;-81
2022/05/16 08:23:40;;;;;;;2.57;2.37;;;23.50;99.90;;;;;;5025454;28;20449;-81
2022/05/16 08:26:08;;;;;;;4.20;2.50;;;23.70;99.90;;;;;;5017391;28;20676;-81
2022/05/16 08:28:38;;;;;;;2.77;2.53;;;23.80;99.90;;;;;;5021780;28;20464;-80
2022/05/16 08:31:07;;;;;;;2.37;2.20;;;23.80;99.90;;;;;;5016246;28;21020;-80
2022/05/16 08:33:36;;;;;;;3.37;2.73;;;23.80;99.90;;;;;;5024834;28;20467;-80
2022/05/16 08:41:47;;;;;;;3.10;2.47;;;23.90;99.90;;;;;;5012851;28;20484;-80
2022/05/16 08:44:21;;;;;;;3.33;2.10;;;23.80;99.90;;;;;;5019297;28;20461;-80
2022/05/16 08:47:01;;;;;;;2.60;2.40;;;24.00;99.90;;;;;;5017942;28;20484;-81
2022/05/16 08:49:35;;;;;;;2.70;2.33;;;24.00;99.90;;;;;;5024509;28;20504;-80
2022/05/16 08:52:11;;;;;;;3.27;2.70;;;24.10;99.90;;;;;;5023259;28;20844;-80
2022/05/16 08:54:45;;;;;;;2.40;2.20;;;24.30;99.90;;;;;;5024010;28;20457;-81
2022/05/16 08:57:28;;;;;;;3.03;2.00;;;24.50;99.90;;;;;;5017581;28;20449;-80
2022/05/16 09:00:02;;;;;;;2.77;2.47;;;24.50;99.90;;;;;;5018010;28;20455;-80
2022/05/16 09:02:33;;;;;;;5.13;2.10;;;24.60;99.90;;;;;;5018935;28;20540;-80
2022/05/16 09:05:09;;;;;;;5.63;2.73;;;24.60;99.90;;;;;;5017354;28;20469;-81
2022/05/16 09:07:45;;;;;;;2.87;2.50;;;24.60;99.90;;;;;;5019366;28;20528;-80
2022/05/16 09:10:16;;;;;;;2.60;2.10;;;24.70;99.90;;;;;;5019435;28;20477;-80
2022/05/16 09:12:55;;;;;;;2.40;1.93;;;24.80;99.90;;;;;;5020354;28;20459;-80
2022/05/16 09:15:32;;;;;;;3.00;2.00;;;24.80;99.90;;;;;;5025480;28;20482;-80
2022/05/16 09:18:24;;;;;;;2.40;2.03;;;24.90;99.90;;;;;;5015993;28;20453;-80
2022/05/16 09:21:05;;;;;;;3.27;2.60;;;25.00;99.90;;;;;;5018522;28;20465;-80
2022/05/16 09:23:45;;;;;;;7.70;2.50;;;25.10;99.90;;;;;;5015824;28;20480;-80
2022/05/16 09:26:24;;;;;;;3.13;2.13;;;25.20;99.90;;;;;;5018586;28;20713;-80
2022/05/16 09:28:57;;;;;;;3.63;1.80;;;25.20;99.90;;;;;;5020610;28;21213;-80
2022/05/16 09:31:28;;;;;;;3.23;2.80;;;25.10;99.90;;;;;;5016045;28;20519;-80
2022/05/16 09:34:00;;;;;;;2.40;2.20;;;25.00;99.90;;;;;;5023022;28;20456;-80
2022/05/16 09:36:33;;;;;;;2.83;2.37;;;25.00;99.90;;;;;;5019373;28;20560;-80
2022/05/16 09:39:05;;;;;;;2.53;2.20;;;25.00;99.90;;;;;;5016518;28;20522;-80
2022/05/16 09:41:44;;;;;;;2.53;1.50;;;25.00;99.90;;;;;;5016822;28;20567;-80
2022/05/16 09:44:23;;;;;;;2.37;2.00;;;25.00;99.90;;;;;;5015833;28;20448;-80
2022/05/16 09:47:12;;;;;;;2.27;1.97;;;25.00;99.90;;;;;;5022741;28;21079;-80
2022/05/16 09:49:40;;;;;;;2.70;2.33;;;25.00;99.90;;;;;;5017392;28;20565;-80
2022/05/16 09:52:16;;;;;;;4.53;2.50;;;25.00;99.90;;;;;;5017754;28;20575;-80
2022/05/16 09:55:00;;;;;;;3.33;2.53;;;25.10;99.90;;;;;;5029844;28;20459;-80
2022/05/16 09:57:28;;;;;;;2.40;2.20;;;25.20;99.90;;;;;;5026541;28;20964;-80
2022/05/16 09:59:59;;;;;;;3.93;2.90;;;25.20;99.90;;;;;;5026977;28;20492;-80
2022/05/16 10:02:31;;;;;;;3.03;2.60;;;25.20;99.90;;;;;;5024302;28;20453;-80
2022/05/16 10:05:03;;;;;;;2.90;2.70;;;25.30;99.90;;;;;;5029471;28;20488;-80
2022/05/16 10:07:44;;;;;;;2.53;2.30;;;25.40;99.90;;;;;;5024356;28;20460;-80
2022/05/16 10:10:19;;;;;;;2.63;2.43;;;25.40;99.90;;;;;;5027409;28;20510;-79
2022/05/16 10:12:50;;;;;;;2.53;2.33;;;25.40;99.90;;;;;;5021280;28;20568;-81
2022/05/16 10:15:19;;;;;;;3.07;2.77;;;25.50;99.90;;;;;;5017288;28;20488;-80
2022/05/16 10:17:52;;;;;;;4.53;3.07;;;25.50;99.90;;;;;;5021616;28;20463;-80
2022/05/16 10:20:23;;;;;;;2.57;2.03;;;25.50;99.90;;;;;;5017393;28;20460;-80
2022/05/16 10:22:55;;;;;;;2.50;2.20;;;25.50;99.90;;;;;;5021425;28;20449;-80
2022/05/16 10:25:37;;;;;;;3.03;2.57;;;25.50;99.90;;;;;;5016342;28;20472;-80
2022/05/16 10:28:09;;;;;;;3.40;2.30;;;25.40;99.90;;;;;;5019477;28;20468;-80
2022/05/16 10:33:25;;;;;;;2.97;1.73;;;25.40;99.90;;;;;;5024176;28;20456;-79
2022/05/16 10:35:59;;;;;;;4.90;1.83;;;25.40;99.90;;;;;;5029037;28;20832;-80
2022/05/16 10:38:37;;;;;;;3.67;1.70;;;25.50;99.90;;;;;;5015047;28;20487;-79
2022/05/16 10:41:11;;;;;;;3.03;1.30;;;25.50;99.90;;;;;;5012940;28;20460;-80
2022/05/16 10:43:56;;;;;;;2.33;1.40;;;25.50;99.90;;;;;;5013605;28;20488;-79
2022/05/16 10:46:30;;;;;;;2.07;1.20;;;25.50;99.90;;;;;;5017256;28;20476;-80
2022/05/16 10:49:03;;;;;;;2.43;1.27;;;25.50;99.90;;;;;;5018080;28;20558;-80
2022/05/16 10:51:39;;;;;;;1.40;1.30;;;25.50;99.90;;;;;;5014077;28;20487;-79
2022/05/16 10:54:13;;;;;;;7.00;2.00;;;25.40;99.90;;;;;;5013827;28;20464;-80
2022/05/16 10:57:04;;;;;;;2.53;1.87;;;25.40;99.90;;;;;;5016442;28;20480;-79
2022/05/16 11:00:06;;;;;;;3.13;1.63;;;25.30;99.90;;;;;;5011147;28;20453;-80
2022/05/16 11:02:59;;;;;;;1.87;1.47;;;25.20;99.90;;;;;;5009460;28;20475;-80
2022/05/16 11:05:39;;;;;;;1.80;1.60;;;25.20;99.90;;;;;;5022803;28;20468;-80
2022/05/16 11:08:18;;;;;;;1.77;1.47;;;25.20;99.90;;;;;;5026194;28;20448;-80
2022/05/16 11:10:56;;;;;;;1.60;1.50;;;25.20;99.90;;;;;;5026791;28;20989;-80
2022/05/16 11:13:37;;;;;;;5.63;1.50;;;25.10;99.90;;;;;;5027117;28;20971;-79
2022/05/16 11:16:11;;;;;;;5.90;1.30;;;24.90;99.90;;;;;;5019275;28;20480;-79
2022/05/16 11:18:45;;;;;;;1.30;1.20;;;24.80;99.90;;;;;;5014466;28;20472;-80
2022/05/16 11:21:25;;;;;;;1.80;1.40;;;24.80;99.90;;;;;;5010808;28;20511;-79
2022/05/16 11:24:03;;;;;;;4.93;1.00;;;24.60;99.90;;;;;;5021400;28;20447;-80
2022/05/16 11:26:40;;;;;;;1.23;1.10;;;24.20;99.90;;;;;;5019050;28;20484;-80
2022/05/16 11:29:18;;;;;;;6.33;1.40;;;24.10;99.90;;;;;;5011634;28;20460;-80
2022/05/16 11:32:17;;;;;;;2.60;0.97;;;23.70;99.90;;;;;;5015087;28;20474;-80
2022/05/16 11:34:53;;;;;;;0.90;0.90;;;23.60;99.90;;;;;;5007326;28;20472;-79
2022/05/16 11:37:34;;;;;;;1.43;1.10;;;23.40;99.90;;;;;;5014677;28;20445;-80
2022/05/16 11:40:07;;;;;;;2.27;1.03;;;23.40;99.90;;;;;;5012583;28;20455;-79
2022/05/16 11:42:43;;;;;;;1.30;1.00;;;23.50;99.90;;;;;;5019775;28;20564;-79
2022/05/16 11:45:27;;;;;;;1.30;0.90;;;23.50;99.90;;;;;;5024333;28;20483;-80
2022/05/16 11:48:03;;;;;;;2.73;1.40;;;23.40;99.90;;;;;;5021688;28;20471;-80
2022/05/16 11:51:03;;;;;;;2.17;1.20;;;23.40;99.90;;;;;;5023735;28;20535;-80
2022/05/16 11:53:44;;;;;;;1.77;1.23;;;23.40;99.90;;;;;;5020079;28;20491;-80
2022/05/16 12:02:15;;;;;;;2.20;1.40;;;23.30;99.90;;;;;;5021107;28;20548;-80
2022/05/16 12:04:47;;;;;;;3.17;1.17;;;23.40;99.90;;;;;;5013900;28;20448;-80
2022/05/16 12:07:19;;;;;;;1.70;1.10;;;23.30;99.90;;;;;;5025068;28;20552;-80
2022/05/16 12:09:55;;;;;;;3.87;1.10;;;23.40;99.90;;;;;;5022787;28;20437;-79
2022/05/16 12:12:38;;;;;;;4.07;1.10;;;23.30;99.90;;;;;;5023068;28;20480;-80
2022/05/16 12:15:31;;;;;;;1.83;1.30;;;23.30;99.90;;;;;;5019758;28;20495;-80
2022/05/16 12:18:04;;;;;;;2.70;1.20;;;23.20;99.90;;;;;;5020898;28;20963;-80
2022/05/16 12:20:56;;;;;;;2.10;1.10;;;23.20;99.90;;;;;;5024317;28;21033;-80
2022/05/16 12:23:56;;;;;;;6.67;1.30;;;23.10;99.90;;;;;;5025316;28;20453;-80
2022/05/16 12:26:46;;;;;;;1.13;1.03;;;23.00;99.90;;;;;;5030744;28;20488;-79
2022/05/16 12:29:16;;;;;;;2.13;1.60;;;23.00;99.90;;;;;;5015191;28;21199;-80
2022/05/16 12:31:52;;;;;;;2.07;1.43;;;22.80;99.90;;;;;;5022475;28;22528;-79
2022/05/16 12:34:44;;;;;;;3.83;1.20;;;22.60;99.90;;;;;;5026770;28;20448;-80
2022/05/16 12:37:16;;;;;;;1.70;1.60;;;22.40;99.90;;;;;;5026088;28;20518;-80
2022/05/16 12:39:53;;;;;;;3.57;2.70;;;22.50;99.90;;;;;;5019281;28;20469;-80
2022/05/16 12:43:02;;;;;;;3.90;1.67;;;22.70;99.90;;;;;;5022441;28;20974;-81
2022/05/16 12:46:10;;;;;;;1.20;1.03;;;22.80;99.90;;;;;;5010541;28;20546;-78
2022/05/16 12:48:58;;;;;;;2.40;1.30;;;22.90;99.90;;;;;;5000488;28;20495;-80
2022/05/16 12:51:44;;;;;;;4.00;1.97;;;22.80;99.90;;;;;;5020225;28;20464;-80
2022/05/16 12:54:51;;;;;;;1.70;1.30;;;23.00;99.90;;;;;;5012441;28;20517;-80
2022/05/16 12:57:45;;;;;;;4.57;1.23;;;23.00;99.90;;;;;;5021268;28;20490;-80
2022/05/16 13:00:19;;;;;;;1.37;1.27;;;23.00;99.90;;;;;;5015546;28;20457;-79
2022/05/16 13:03:20;;;;;;;3.27;1.30;;;22.80;99.90;;;;;;5022417;28;20555;-80
2022/05/16 13:05:57;;;;;;;2.13;1.30;;;22.00;99.90;;;;;;5024447;28;20589;-80
2022/05/16 13:08:50;;;;;;;4.63;1.33;;;22.30;99.90;;;;;;5018640;28;20467;-80
2022/05/16 13:11:26;;;;;;;3.50;1.30;;;22.50;99.90;;;;;;5019020;28;20476;-80
2022/05/16 13:14:05;;;;;;;2.07;1.60;;;22.70;99.90;;;;;;5028704;28;20483;-79
2022/05/16 13:16:36;;;;;;;2.30;1.40;;;22.90;99.90;;;;;;5035462;28;20484;-80
2022/05/16 13:19:10;;;;;;;2.33;1.70;;;22.70;99.90;;;;;;5021015;28;20492;-80
2022/05/16 13:21:42;;;;;;;3.10;1.57;;;22.70;99.90;;;;;;5016711;28;20473;-80
2022/05/16 13:24:14;;;;;;;2.30;1.70;;;22.40;99.90;;;;;;5017910;28;20452;-80
2022/05/16 13:29:56;;;;;;;2.43;1.90;;;22.70;99.90;;;;;;5020274;28;20502;-80
2022/05/16 13:32:29;;;;;;;3.67;2.03;;;22.40;99.90;;;;;;5024334;28;20688;-81
2022/05/16 13:35:01;;;;;;;2.33;2.10;;;22.50;99.90;;;;;;5024602;28;20487;-81
2022/05/16 13:37:32;;;;;;;3.80;1.93;;;22.40;99.90;;;;;;5023001;28;21051;-80
2022/05/16 13:40:06;;;;;;;2.80;2.03;;;22.60;99.90;;;;;;5020130;28;20452;-80
2022/05/16 13:42:37;;;;;;;3.83;1.70;;;22.80;99.90;;;;;;5018464;28;20459;-81
2022/05/16 13:45:08;;;;;;;2.77;2.50;;;23.00;99.90;;;;;;5018211;28;20592;-80
2022/05/16 13:47:41;;;;;;;3.10;2.47;;;23.10;99.90;;;;;;5014164;28;21029;-80
2022/05/16 13:50:21;;;;;;;4.30;2.80;;;23.10;99.90;;;;;;5021134;28;20452;-79
2022/05/16 13:52:51;;;;;;;4.33;2.40;;;23.10;99.90;;;;;;5025784;28;20558;-79
2022/05/16 13:55:21;;;;;;;4.77;2.10;;;23.30;99.90;;;;;;5017739;28;20481;-79
2022/05/16 13:57:50;;;;;;;3.50;2.00;;;23.30;99.90;;;;;;5025598;28;20452;-80